createdAt,value
2023-01-29T00:01:43.386Z,52.57
2023-01-29T00:04:12.886Z,49.43
2023-01-29T00:06:40.884Z,50.00
2023-01-29T00:09:08.817Z,52.03
2023-01-29T00:11:37.105Z,49.80
2023-01-29T00:14:05.079Z,50.73
2023-01-29T00:16:33.006Z,50.87
2023-01-29T00:19:02.283Z,48.57
2023-01-29T00:21:32.156Z,48.17
2023-01-29T00:24:00.690Z,51.03
2023-01-29T00:26:28.930Z,50.33
2023-01-29T00:29:00.461Z,49.10
2023-01-29T00:31:28.480Z,52.90
2023-01-29T00:33:56.421Z,51.83
2023-01-29T00:36:24.846Z,50.60
2023-01-29T00:38:58.765Z,51.57
2023-01-29T00:41:46.099Z,52.30
2023-01-29T00:44:31.449Z,49.53
2023-01-29T00:46:59.820Z,47.27
2023-01-29T00:49:27.691Z,51.70
2023-01-29T00:52:13.240Z,51.50
2023-01-29T00:54:42.603Z,50.63
2023-01-29T00:57:10.558Z,48.20
2023-01-29T00:59:38.884Z,48.30
2023-01-29T01:02:24.371Z,47.57
2023-01-29T01:04:52.199Z,52.23
2023-01-29T01:07:20.042Z,52.93
2023-01-29T01:10:06.511Z,48.33
2023-01-29T01:12:35.033Z,46.80
2023-01-29T01:15:02.848Z,49.00
2023-01-29T01:17:30.887Z,48.43
2023-01-29T01:19:58.734Z,48.03
2023-01-29T01:22:26.551Z,49.47
2023-01-29T01:24:55.746Z,51.40
2023-01-29T01:27:23.584Z,49.23
2023-01-29T01:29:51.440Z,45.57
2023-01-29T01:32:19.300Z,46.73
2023-01-29T01:34:47.138Z,51.47
2023-01-29T01:37:14.952Z,49.43
2023-01-29T01:39:42.786Z,50.27
2023-01-29T01:42:14.425Z,50.50
2023-01-29T01:45:08.081Z,51.60
2023-01-29T01:47:40.119Z,52.23
2023-01-29T01:50:13.696Z,48.50
2023-01-29T01:52:46.205Z,56.67
2023-01-29T01:55:18.269Z,49.83
2023-01-29T01:57:51.897Z,52.10
2023-01-29T02:00:23.173Z,49.07
2023-01-29T02:03:08.617Z,52.27
2023-01-29T02:05:55.598Z,52.97
2023-01-29T02:08:48.483Z,52.77
2023-01-29T02:11:17.000Z,51.30
2023-01-29T02:13:46.337Z,48.43
2023-01-29T02:16:14.142Z,50.87
2023-01-29T02:18:41.969Z,53.60
2023-01-29T02:21:29.090Z,53.27
2023-01-29T02:24:27.024Z,54.03
2023-01-29T02:27:07.604Z,55.20
2023-01-29T02:29:49.175Z,47.80
2023-01-29T02:32:25.539Z,55.10
2023-01-29T02:35:24.801Z,52.63
2023-01-29T02:37:58.628Z,50.17
2023-01-29T02:40:32.219Z,47.67
2023-01-29T02:43:09.402Z,53.03
2023-01-29T02:45:48.384Z,47.97
2023-01-29T02:48:20.666Z,48.63
2023-01-29T02:50:55.035Z,51.63
2023-01-29T02:53:28.765Z,53.43
2023-01-29T02:56:01.204Z,51.10
2023-01-29T02:58:35.587Z,47.70
2023-01-29T03:01:09.935Z,50.10
2023-01-29T03:03:41.573Z,49.57
2023-01-29T03:06:20.713Z,48.20
2023-01-29T03:08:55.476Z,48.83
2023-01-29T03:11:23.636Z,51.90
2023-01-29T03:13:57.195Z,50.07
2023-01-29T03:16:32.326Z,53.13
2023-01-29T03:19:04.355Z,52.67
2023-01-29T03:21:55.323Z,49.17
2023-01-29T03:24:52.887Z,54.90
2023-01-29T03:27:46.396Z,49.63
2023-01-29T03:30:34.952Z,50.83
2023-01-29T03:33:27.224Z,48.47
2023-01-29T03:36:00.805Z,53.63
2023-01-29T03:38:29.738Z,53.70
2023-01-29T03:41:01.230Z,53.90
2023-01-29T03:43:36.309Z,53.80
2023-01-29T03:46:09.769Z,54.30
2023-01-29T03:48:45.642Z,53.00
2023-01-29T03:51:23.881Z,53.90
2023-01-29T03:53:58.950Z,60.77
2023-01-29T03:56:40.623Z,55.63
2023-01-29T03:59:20.621Z,54.70
2023-01-29T04:02:19.249Z,55.47
2023-01-29T04:04:53.151Z,52.03
2023-01-29T04:07:29.720Z,53.20
2023-01-29T04:10:07.670Z,55.40
2023-01-29T04:12:42.074Z,50.50
2023-01-29T04:15:14.700Z,54.93
2023-01-29T04:17:46.826Z,53.57
2023-01-29T04:20:24.666Z,53.47
2023-01-29T04:22:53.387Z,58.17
2023-01-29T04:25:26.518Z,54.53
2023-01-29T04:28:06.018Z,59.57
2023-01-29T04:30:44.853Z,55.60
2023-01-29T04:33:24.706Z,54.50
2023-01-29T04:36:08.331Z,55.53
2023-01-29T04:38:48.444Z,57.77
2023-01-29T04:41:22.969Z,55.53
2023-01-29T04:44:01.136Z,53.87
2023-01-29T04:46:38.162Z,55.03
2023-01-29T04:49:17.571Z,56.83
2023-01-29T04:51:52.747Z,54.33
2023-01-29T04:54:32.906Z,53.83
2023-01-29T04:57:09.958Z,54.27
2023-01-29T04:59:42.482Z,53.83
2023-01-29T05:02:13.120Z,56.73
2023-01-29T05:04:43.681Z,56.73
2023-01-29T05:07:15.337Z,54.63
2023-01-29T05:09:45.937Z,60.50
2023-01-29T05:12:16.917Z,54.23
2023-01-29T05:14:47.531Z,56.03
2023-01-29T05:17:17.507Z,53.83
2023-01-29T05:19:46.830Z,57.17
2023-01-29T05:22:18.712Z,55.67
2023-01-29T05:24:46.565Z,58.03
2023-01-29T05:27:36.938Z,55.50
2023-01-29T05:30:05.881Z,57.43
2023-01-29T05:32:33.733Z,56.20
2023-01-29T05:35:01.507Z,54.20
2023-01-29T05:37:30.652Z,58.37
2023-01-29T05:39:58.447Z,55.23
2023-01-29T05:42:26.353Z,56.57
2023-01-29T05:44:54.295Z,56.23
2023-01-29T05:47:22.605Z,56.43
2023-01-29T05:49:50.341Z,55.70
2023-01-29T05:52:18.078Z,58.27
2023-01-29T05:54:47.572Z,55.90
2023-01-29T05:57:16.076Z,57.67
2023-01-29T05:59:43.870Z,56.80
2023-01-29T06:02:11.667Z,55.83
2023-01-29T06:04:39.424Z,60.20
2023-01-29T06:07:07.176Z,57.63
2023-01-29T06:09:34.913Z,55.20
2023-01-29T06:12:06.132Z,57.67
2023-01-29T06:14:33.918Z,54.83
2023-01-29T06:17:01.696Z,51.33
2023-01-29T06:19:29.438Z,53.23
2023-01-29T06:21:57.205Z,53.30
2023-01-29T06:24:24.953Z,51.60
2023-01-29T06:26:52.724Z,52.40
2023-01-29T06:29:21.910Z,50.57
2023-01-29T06:31:49.807Z,51.73
2023-01-29T06:34:18.236Z,51.03
2023-01-29T06:36:45.954Z,54.33
2023-01-29T06:39:13.737Z,51.30
2023-01-29T06:41:41.489Z,52.17
2023-01-29T06:44:09.266Z,48.93
2023-01-29T06:46:38.591Z,49.67
2023-01-29T06:49:06.350Z,48.63
2023-01-29T06:51:34.208Z,53.20
2023-01-29T06:54:02.687Z,50.73
2023-01-29T06:56:30.451Z,52.40
2023-01-29T06:58:58.186Z,50.27
2023-01-29T07:01:35.772Z,50.67
2023-01-29T07:04:05.910Z,49.30
2023-01-29T07:06:33.860Z,48.67
2023-01-29T07:09:01.730Z,49.17
2023-01-29T07:11:29.690Z,46.33
2023-01-29T07:13:57.809Z,50.53
2023-01-29T07:16:26.323Z,49.37
2023-01-29T07:18:54.465Z,49.70
2023-01-29T07:21:23.736Z,51.00
2023-01-29T07:23:52.154Z,51.60
2023-01-29T07:26:20.041Z,51.20
2023-01-29T07:28:47.791Z,50.53
2023-01-29T07:31:15.850Z,48.03
2023-01-29T07:33:44.778Z,50.10
2023-01-29T07:36:13.837Z,47.90
2023-01-29T07:38:43.079Z,50.10
2023-01-29T07:41:12.725Z,51.03
2023-01-29T07:43:40.628Z,48.27
2023-01-29T07:46:08.527Z,48.77
2023-01-29T07:48:37.006Z,48.57
2023-01-29T07:51:04.975Z,50.80
2023-01-29T07:53:32.839Z,49.17
2023-01-29T07:56:01.968Z,50.27
2023-01-29T07:58:29.761Z,51.30
2023-01-29T08:00:57.636Z,51.97
2023-01-29T08:03:25.410Z,50.70
2023-01-29T08:05:53.146Z,49.13
2023-01-29T08:08:20.888Z,50.40
2023-01-29T08:10:48.652Z,49.10
2023-01-29T08:13:17.803Z,47.00
2023-01-29T08:15:46.111Z,48.43
2023-01-29T08:18:14.474Z,51.17
2023-01-29T08:20:42.231Z,48.83
2023-01-29T08:23:14.708Z,48.60
2023-01-29T08:25:42.877Z,49.07
2023-01-29T08:28:12.272Z,49.57
2023-01-29T08:30:41.512Z,48.50
2023-01-29T08:33:09.331Z,48.57
2023-01-29T08:35:37.455Z,46.40
2023-01-29T08:38:06.794Z,47.67
2023-01-29T08:40:35.611Z,50.73
2023-01-29T08:43:06.967Z,51.30
2023-01-29T08:45:37.911Z,50.10
2023-01-29T08:48:07.800Z,50.37
2023-01-29T08:50:36.284Z,49.07
2023-01-29T08:53:07.524Z,49.43
2023-01-29T08:55:37.005Z,46.70
2023-01-29T08:58:05.326Z,49.80
2023-01-29T09:00:33.482Z,46.30
2023-01-29T09:03:01.324Z,48.80
2023-01-29T09:05:30.620Z,46.97
2023-01-29T09:07:58.732Z,44.60
2023-01-29T09:10:26.817Z,47.43
2023-01-29T09:12:54.594Z,46.33
2023-01-29T09:15:22.412Z,47.57
2023-01-29T09:17:50.373Z,48.73
2023-01-29T09:20:19.463Z,67.67
2023-01-29T09:22:49.396Z,50.27
2023-01-29T09:25:17.666Z,43.87
2023-01-29T09:27:45.746Z,47.20
2023-01-29T09:30:14.332Z,40.67
2023-01-29T09:32:57.535Z,44.40
2023-01-29T09:35:25.503Z,41.93
2023-01-29T09:37:54.610Z,45.17
2023-01-29T09:40:27.647Z,44.30
2023-01-29T09:43:00.369Z,43.97
2023-01-29T09:45:29.661Z,44.23
2023-01-29T09:48:00.230Z,41.83
2023-01-29T09:50:32.390Z,39.77
2023-01-29T09:53:06.228Z,37.47
2023-01-29T09:55:39.910Z,41.40
2023-01-29T09:58:16.856Z,42.70
2023-01-29T10:00:51.559Z,41.03
2023-01-29T10:03:37.270Z,42.40
2023-01-29T10:06:19.809Z,40.40
2023-01-29T10:09:04.815Z,37.70
2023-01-29T10:11:44.603Z,41.17
2023-01-29T10:14:19.801Z,41.60
2023-01-29T10:17:03.842Z,41.00
2023-01-29T10:19:47.496Z,38.10
2023-01-29T10:22:40.341Z,41.30
2023-01-29T10:25:13.026Z,39.53
2023-01-29T10:27:47.042Z,41.00
2023-01-29T10:30:24.490Z,42.17
2023-01-29T10:32:53.293Z,40.83
2023-01-29T10:35:24.040Z,38.10
2023-01-29T10:37:54.536Z,36.87
2023-01-29T10:40:28.849Z,39.47
2023-01-29T10:43:04.523Z,41.07
2023-01-29T10:45:41.079Z,38.83
2023-01-29T10:48:30.054Z,38.87
2023-01-29T10:51:08.331Z,39.03
2023-01-29T10:53:49.789Z,37.27
2023-01-29T10:56:33.919Z,36.43
2023-01-29T10:59:06.186Z,35.67
2023-01-29T11:01:34.157Z,38.73
2023-01-29T11:04:04.084Z,42.60
2023-01-29T11:06:34.229Z,39.30
2023-01-29T11:09:09.094Z,37.67
2023-01-29T11:11:45.025Z,38.53
2023-01-29T11:14:17.292Z,37.73
2023-01-29T11:16:47.384Z,36.97
2023-01-29T11:19:16.585Z,39.10
2023-01-29T11:21:57.655Z,41.63
2023-01-29T11:24:26.090Z,39.67
2023-01-29T11:26:58.210Z,38.00
2023-01-29T11:29:33.885Z,39.07
2023-01-29T11:32:04.757Z,36.83
2023-01-29T11:34:32.615Z,37.03
2023-01-29T11:37:02.171Z,40.73
2023-01-29T11:39:31.713Z,38.57
2023-01-29T11:42:03.677Z,37.60
2023-01-29T11:44:34.192Z,36.97
2023-01-29T11:47:13.618Z,36.20
2023-01-29T11:49:45.950Z,37.00
2023-01-29T11:52:16.127Z,37.73
2023-01-29T11:54:48.344Z,35.57
2023-01-29T11:57:27.531Z,36.43
2023-01-29T11:59:57.565Z,36.10
2023-01-29T12:02:31.410Z,36.83
2023-01-29T12:05:02.245Z,35.57
2023-01-29T12:07:31.443Z,32.60
2023-01-29T12:10:00.415Z,34.23
2023-01-29T12:12:32.886Z,36.70
2023-01-29T12:15:16.971Z,32.10
2023-01-29T12:17:52.065Z,31.07
2023-01-29T12:20:26.483Z,33.07
2023-01-29T12:23:03.444Z,33.17
2023-01-29T12:25:41.560Z,31.23
2023-01-29T12:28:21.287Z,32.67
2023-01-29T12:31:00.938Z,30.60
2023-01-29T12:33:40.130Z,32.70
2023-01-29T12:36:14.726Z,31.73
2023-01-29T12:38:45.817Z,33.43
2023-01-29T12:41:29.506Z,33.60
2023-01-29T12:44:03.772Z,30.40
2023-01-29T12:46:38.992Z,30.57
2023-01-29T12:49:16.391Z,30.77
2023-01-29T12:51:54.306Z,28.57
2023-01-29T12:54:27.846Z,33.93
2023-01-29T12:57:01.397Z,32.30
2023-01-29T12:59:34.153Z,32.27
2023-01-29T13:02:13.022Z,30.77
2023-01-29T13:04:45.485Z,33.67
2023-01-29T13:07:18.818Z,32.17
2023-01-29T13:09:51.759Z,33.27
2023-01-29T13:12:23.895Z,30.23
2023-01-29T13:14:57.191Z,33.57
2023-01-29T13:17:31.485Z,31.33
2023-01-29T13:20:04.282Z,32.57
2023-01-29T13:22:37.821Z,26.63
2023-01-29T13:25:06.386Z,28.33
2023-01-29T13:27:36.274Z,30.13
2023-01-29T13:30:06.597Z,29.33
2023-01-29T13:32:36.929Z,29.50
2023-01-29T13:35:07.063Z,28.47
2023-01-29T13:37:37.310Z,25.73
2023-01-29T13:40:08.677Z,26.07
2023-01-29T13:42:43.604Z,25.40
2023-01-29T13:45:21.639Z,31.83
2023-01-29T13:47:51.030Z,27.33
2023-01-29T13:50:25.033Z,28.20
2023-01-29T13:52:58.936Z,29.83
2023-01-29T13:55:32.001Z,31.37
2023-01-29T13:58:00.874Z,32.07
2023-01-29T14:01:01.523Z,36.47
2023-01-29T14:04:09.984Z,32.97
2023-01-29T14:06:52.088Z,33.50
2023-01-29T14:09:34.659Z,33.07
2023-01-29T14:12:02.579Z,33.30
2023-01-29T14:15:00.035Z,32.83
2023-01-29T14:17:30.386Z,40.77
2023-01-29T14:20:03.544Z,34.40
2023-01-29T14:22:33.957Z,35.77
2023-01-29T14:25:06.009Z,33.27
2023-01-29T14:27:35.583Z,32.30
2023-01-29T14:30:10.883Z,32.40
2023-01-29T14:32:41.484Z,33.90
2023-01-29T14:35:20.209Z,36.00
2023-01-29T14:37:51.538Z,35.23
2023-01-29T14:40:23.693Z,32.87
2023-01-29T14:42:58.882Z,33.47
2023-01-29T14:45:28.947Z,32.17
2023-01-29T14:48:18.608Z,33.50
2023-01-29T14:51:07.946Z,32.90
2023-01-29T14:53:54.152Z,30.73
2023-01-29T14:56:28.728Z,32.67
2023-01-29T14:59:13.292Z,33.30
2023-01-29T15:01:48.095Z,30.70
2023-01-29T15:04:24.155Z,31.00
2023-01-29T15:06:56.623Z,30.47
2023-01-29T15:09:37.084Z,30.90
2023-01-29T15:12:15.300Z,31.07
2023-01-29T15:14:47.892Z,32.47
2023-01-29T15:17:23.061Z,29.90
2023-01-29T15:19:52.213Z,31.50
2023-01-29T15:22:22.295Z,31.07
2023-01-29T15:25:05.177Z,40.53
2023-01-29T15:27:33.292Z,37.60
2023-01-29T15:30:04.040Z,35.37
2023-01-29T15:32:34.961Z,28.30
2023-01-29T15:35:09.495Z,29.07
2023-01-29T15:37:38.054Z,30.90
2023-01-29T15:40:16.220Z,25.53
2023-01-29T15:42:46.636Z,27.73
2023-01-29T15:45:25.853Z,27.63
2023-01-29T15:47:55.985Z,27.27
2023-01-29T15:50:25.400Z,28.13
2023-01-29T15:52:55.456Z,24.80
2023-01-29T15:55:24.830Z,21.70
2023-01-29T15:57:53.163Z,23.70
2023-01-29T16:00:24.968Z,23.10
2023-01-29T16:02:52.904Z,27.40
2023-01-29T16:05:24.769Z,25.27
2023-01-29T16:07:56.489Z,22.27
2023-01-29T16:10:27.580Z,23.33
2023-01-29T16:12:56.292Z,27.70
2023-01-29T16:15:33.498Z,23.47
2023-01-29T16:18:03.455Z,20.03
2023-01-29T16:20:39.770Z,20.00
2023-01-29T16:23:18.289Z,21.20
2023-01-29T16:25:46.667Z,22.77
2023-01-29T16:28:14.511Z,26.23
2023-01-29T16:30:42.383Z,24.40
2023-01-29T16:33:14.160Z,23.63
2023-01-29T16:35:42.737Z,25.63
2023-01-29T16:38:25.959Z,24.87
2023-01-29T16:41:08.655Z,23.97
2023-01-29T16:43:50.928Z,24.07
2023-01-29T16:46:26.331Z,25.00
2023-01-29T16:48:55.012Z,27.13
2023-01-29T16:51:27.030Z,25.87
2023-01-29T16:54:02.950Z,24.73
2023-01-29T16:56:33.611Z,25.93
2023-01-29T16:59:04.316Z,24.87
2023-01-29T17:01:33.434Z,25.37
2023-01-29T17:04:07.605Z,26.57
2023-01-29T17:06:36.319Z,25.03
2023-01-29T17:09:06.964Z,24.30
2023-01-29T17:11:39.478Z,24.27
2023-01-29T17:14:08.806Z,24.63
2023-01-29T17:16:38.168Z,25.70
2023-01-29T17:19:17.770Z,24.63
2023-01-29T17:21:45.700Z,26.23
2023-01-29T17:24:14.895Z,25.83
2023-01-29T17:26:43.246Z,24.27
2023-01-29T17:29:15.428Z,26.33
2023-01-29T17:31:43.410Z,30.83
2023-01-29T17:34:14.325Z,28.60
2023-01-29T17:36:42.358Z,31.70
2023-01-29T17:39:20.101Z,26.47
2023-01-29T17:41:50.625Z,29.47
2023-01-29T17:44:18.562Z,30.73
2023-01-29T17:46:47.420Z,25.40
2023-01-29T17:49:23.355Z,25.77
2023-01-29T17:51:51.558Z,25.97
2023-01-29T17:54:21.566Z,26.60
2023-01-29T17:56:49.665Z,28.87
2023-01-29T17:59:19.207Z,26.27
2023-01-29T18:01:48.206Z,30.13
2023-01-29T18:04:16.317Z,29.83
2023-01-29T18:06:46.352Z,30.37
2023-01-29T18:09:14.762Z,28.70
2023-01-29T18:11:44.133Z,29.50
2023-01-29T18:14:14.043Z,29.63
2023-01-29T18:16:44.018Z,30.17
2023-01-29T18:19:15.559Z,28.13
2023-01-29T18:21:43.453Z,28.03
2023-01-29T18:24:11.185Z,29.63
2023-01-29T18:26:39.247Z,28.10
2023-01-29T18:29:08.657Z,29.90
2023-01-29T18:31:36.632Z,30.37
2023-01-29T18:34:04.669Z,27.53
2023-01-29T18:36:32.496Z,30.10
2023-01-29T18:39:00.219Z,26.93
2023-01-29T18:41:27.972Z,30.73
2023-01-29T18:43:55.774Z,28.50
2023-01-29T18:46:25.118Z,26.53
2023-01-29T18:48:52.901Z,29.83
2023-01-29T18:51:20.686Z,29.93
2023-01-29T18:53:50.907Z,31.17
2023-01-29T18:56:19.280Z,27.40
2023-01-29T18:58:51.968Z,27.67
2023-01-29T19:01:21.136Z,26.43
2023-01-29T19:03:50.305Z,25.33
2023-01-29T19:06:18.086Z,25.53
2023-01-29T19:08:47.314Z,23.17
2023-01-29T19:11:15.178Z,22.77
2023-01-29T19:13:43.139Z,21.00
2023-01-29T19:16:12.599Z,21.23
2023-01-29T19:18:40.507Z,27.10
2023-01-29T19:21:11.840Z,22.27
2023-01-29T19:23:39.801Z,21.60
2023-01-29T19:26:08.395Z,23.70
2023-01-29T19:28:36.375Z,24.80
2023-01-29T19:31:04.286Z,22.23
2023-01-29T19:33:32.105Z,22.23
2023-01-29T19:36:00.720Z,23.30
2023-01-29T19:38:33.341Z,25.73
2023-01-29T19:41:01.310Z,26.13
2023-01-29T19:43:30.488Z,24.40
2023-01-29T19:45:59.319Z,26.03
2023-01-29T19:48:27.737Z,24.93
2023-01-29T19:50:56.916Z,29.43
2023-01-29T19:53:25.586Z,25.17
2023-01-29T19:56:02.249Z,23.40
2023-01-29T19:58:30.890Z,26.03
2023-01-29T20:00:59.877Z,25.97
2023-01-29T20:03:29.434Z,23.93
2023-01-29T20:05:57.284Z,24.57
2023-01-29T20:08:25.122Z,24.73
2023-01-29T20:10:52.893Z,24.03
2023-01-29T20:13:22.019Z,23.93
2023-01-29T20:15:51.208Z,22.13
2023-01-29T20:18:19.941Z,22.67
2023-01-29T20:20:49.867Z,23.33
2023-01-29T20:23:35.299Z,19.93
2023-01-29T20:26:05.163Z,21.40
2023-01-29T20:28:34.559Z,20.30
2023-01-29T20:31:02.770Z,25.20
2023-01-29T20:33:31.108Z,22.83
2023-01-29T20:36:00.261Z,23.33
2023-01-29T20:38:31.403Z,22.97
2023-01-29T20:41:04.809Z,22.70
2023-01-29T20:43:34.310Z,21.97
2023-01-29T20:46:02.758Z,23.20
2023-01-29T20:48:31.088Z,23.03
2023-01-29T20:51:04.459Z,22.30
2023-01-29T20:53:32.201Z,25.80
2023-01-29T20:56:00.107Z,22.17
2023-01-29T20:58:28.540Z,22.77
2023-01-29T21:00:57.903Z,24.33
2023-01-29T21:03:25.704Z,24.47
2023-01-29T21:05:54.272Z,24.43
2023-01-29T21:08:22.119Z,24.33
2023-01-29T21:10:50.576Z,21.93
2023-01-29T21:13:18.297Z,24.63
2023-01-29T21:15:46.431Z,23.13
2023-01-29T21:18:15.627Z,22.50
2023-01-29T21:20:43.400Z,22.97
2023-01-29T21:23:11.595Z,20.77
2023-01-29T21:25:39.621Z,23.73
2023-01-29T21:28:07.916Z,22.80
2023-01-29T21:30:35.747Z,23.40
2023-01-29T21:33:03.627Z,25.40
2023-01-29T21:35:33.104Z,22.00
2023-01-29T21:38:00.905Z,25.23
2023-01-29T21:40:30.470Z,26.90
2023-01-29T21:43:12.354Z,25.00
2023-01-29T21:45:41.028Z,26.10
2023-01-29T21:48:09.389Z,24.83
2023-01-29T21:50:38.961Z,25.23
2023-01-29T21:53:06.783Z,27.00
2023-01-29T21:55:34.652Z,26.87
2023-01-29T21:58:02.401Z,26.20
2023-01-29T22:00:30.174Z,27.90
2023-01-29T22:02:57.989Z,25.87
2023-01-29T22:05:26.446Z,26.90
2023-01-29T22:07:56.430Z,25.83
2023-01-29T22:10:24.159Z,24.03
2023-01-29T22:12:51.990Z,27.97
2023-01-29T22:15:21.125Z,28.53
2023-01-29T22:17:50.840Z,25.17
2023-01-29T22:20:19.520Z,29.87
2023-01-29T22:22:47.529Z,29.87
2023-01-29T22:25:19.938Z,28.30
2023-01-29T22:27:47.851Z,27.40
2023-01-29T22:30:16.190Z,28.73
2023-01-29T22:32:44.239Z,27.93
2023-01-29T22:35:12.013Z,30.93
2023-01-29T22:37:39.788Z,27.23
2023-01-29T22:40:08.726Z,33.23
2023-01-29T22:42:37.864Z,29.03
2023-01-29T22:45:06.257Z,32.73
2023-01-29T22:47:34.271Z,30.70
2023-01-29T22:50:02.019Z,29.27
2023-01-29T22:52:38.276Z,28.20
2023-01-29T22:55:08.798Z,30.30
2023-01-29T22:57:38.349Z,33.50
2023-01-29T23:00:09.927Z,33.03
2023-01-29T23:02:38.095Z,31.47
2023-01-29T23:05:06.866Z,30.33
2023-01-29T23:07:35.260Z,31.40
2023-01-29T23:10:03.419Z,33.40
2023-01-29T23:12:31.161Z,34.87
2023-01-29T23:15:00.451Z,28.40
2023-01-29T23:17:28.560Z,33.10
2023-01-29T23:19:56.563Z,29.23
2023-01-29T23:22:24.344Z,31.20
2023-01-29T23:24:53.016Z,32.13
2023-01-29T23:27:20.076Z,35.73
2023-01-29T23:29:49.192Z,34.93
2023-01-29T23:32:20.437Z,34.13
2023-01-29T23:34:48.193Z,32.40
2023-01-29T23:37:15.909Z,29.73
2023-01-29T23:39:43.611Z,29.90
2023-01-29T23:42:11.471Z,34.10
2023-01-29T23:44:40.229Z,33.70
2023-01-29T23:47:07.993Z,32.20
2023-01-29T23:49:37.337Z,34.87
2023-01-29T23:52:05.239Z,35.77
2023-01-29T23:54:33.134Z,32.57
2023-01-29T23:57:00.900Z,34.17
2023-01-29T23:59:28.978Z,32.30
